Time;durP1;ratioP1;P1;durP2;ratioP2;P2;SDS_P1;SDS_P2;PMS_P1;PMS_P2;Temp;Humidity;BMP_temperature;BMP_pressure;BME280_temperature;BME280_humidity;BME280_pressure;Samples;Min_cycle;Max_cycle;Signal;HPM_P1;HPM_P2
2023/12/24 00:00:01;;;;;;;10.25;2.55;;;;;;;8.21;100.00;100518.13;1039713;28;20335;-48
2023/12/24 00:00:35;;;;;;;11.10;3.50;;;;;;;8.18;100.00;100514.06;1038393;28;20303;-47
2023/12/24 00:01:06;;;;;;;8.82;2.13;;;;;;;8.14;100.00;100512.84;1038914;28;20295;-49
2023/12/24 00:01:40;;;;;;;9.77;2.53;;;;;;;8.13;100.00;100511.22;1041409;28;20307;-48
2023/12/24 00:02:12;;;;;;;9.32;2.78;;;;;;;8.18;100.00;100515.88;1043505;28;20326;-46
2023/12/24 00:02:43;;;;;;;8.30;2.72;;;;;;;8.10;100.00;100506.31;1043653;28;20295;-49
2023/12/24 00:03:15;;;;;;;10.10;2.45;;;;;;;8.16;100.00;100505.50;1043375;28;20311;-49
2023/12/24 00:03:47;;;;;;;7.13;2.35;;;;;;;8.17;100.00;100511.59;1043304;28;20307;-49
2023/12/24 00:04:18;;;;;;;10.77;3.10;;;;;;;8.17;100.00;100501.81;1043423;28;20326;-47
2023/12/24 00:04:50;;;;;;;7.65;2.00;;;;;;;8.23;100.00;100511.63;1047279;28;20306;-46
2023/12/24 00:05:22;;;;;;;7.00;2.50;;;;;;;8.23;100.00;100508.97;1047546;28;20373;-56
2023/12/24 00:05:53;;;;;;;8.00;3.42;;;;;;;8.25;100.00;100509.56;1044919;28;20807;-56
2023/12/24 00:06:29;;;;;;;6.78;2.38;;;;;;;8.21;100.00;100510.16;1043710;28;20314;-49
2023/12/24 00:07:00;;;;;;;11.60;3.17;;;;;;;8.19;100.00;100515.69;1043515;28;20808;-46
2023/12/24 00:07:32;;;;;;;13.02;3.78;;;;;;;8.14;100.00;100499.56;1044464;28;20337;-56
2023/12/24 00:08:04;;;;;;;10.90;3.60;;;;;;;8.19;100.00;100506.91;1043210;28;20325;-56
2023/12/24 00:08:36;;;;;;;7.80;3.05;;;;;;;8.27;100.00;100518.13;1043074;28;20299;-56
2023/12/24 00:09:08;;;;;;;14.93;3.30;;;;;;;8.23;100.00;100516.91;1043514;28;20319;-46
2023/12/24 00:09:39;;;;;;;14.65;3.28;;;;;;;8.22;100.00;100512.63;1046255;28;20295;-47
2023/12/24 00:10:11;;;;;;;10.68;2.88;;;;;;;8.23;100.00;100521.41;1046770;28;20298;-55
2023/12/24 00:10:42;;;;;;;6.80;2.35;;;;;;;8.22;100.00;100515.28;1043891;28;20690;-56
2023/12/24 00:11:14;;;;;;;10.00;2.65;;;;;;;8.21;100.00;100510.16;1044617;28;20295;-56
2023/12/24 00:11:46;;;;;;;6.95;2.25;;;;;;;8.23;100.00;100508.16;1043894;28;20446;-56
2023/12/24 00:12:17;;;;;;;8.07;3.75;;;;;;;8.29;100.00;100505.47;1042997;28;20303;-56
2023/12/24 00:12:49;;;;;;;4.13;1.85;;;;;;;8.38;100.00;100497.28;1043209;28;20295;-56
2023/12/24 00:13:21;;;;;;;7.05;2.97;;;;;;;8.39;100.00;100509.53;1043531;28;20295;-55
2023/12/24 00:13:52;;;;;;;10.77;2.65;;;;;;;8.32;100.00;100507.69;1046793;28;20298;-56
2023/12/24 00:14:24;;;;;;;10.02;3.17;;;;;;;8.27;100.00;100507.50;1047249;28;20361;-56
2023/12/24 00:14:56;;;;;;;7.55;2.88;;;;;;;8.29;100.00;100509.97;1047295;28;20286;-56
2023/12/24 00:15:27;;;;;;;8.07;3.15;;;;;;;8.29;100.00;100510.78;1047193;28;20299;-48
2023/12/24 00:15:59;;;;;;;6.25;2.92;;;;;;;8.40;100.00;100489.94;1047305;28;22082;-48
2023/12/24 00:16:31;;;;;;;10.07;3.42;;;;;;;8.38;100.00;100498.09;1045835;28;20359;-47
2023/12/24 00:17:03;;;;;;;7.57;2.67;;;;;;;8.32;100.00;100509.53;1043372;28;20314;-46
2023/12/24 00:17:35;;;;;;;7.85;2.53;;;;;;;8.28;100.00;100498.53;1042640;28;20307;-48
2023/12/24 00:18:07;;;;;;;10.32;2.60;;;;;;;8.29;100.00;100494.84;1042919;28;20303;-46
2023/12/24 00:18:39;;;;;;;9.55;2.53;;;;;;;8.35;100.00;100491.38;1043420;28;20804;-49
2023/12/24 00:19:10;;;;;;;7.80;2.50;;;;;;;8.35;100.00;100491.38;1042967;28;20299;-46
2023/12/24 00:19:42;;;;;;;8.05;2.22;;;;;;;8.33;100.00;100487.28;1045754;28;20307;-46
2023/12/24 00:20:14;;;;;;;11.70;2.47;;;;;;;8.43;100.00;100490.31;1047534;28;20324;-47
2023/12/24 00:20:45;;;;;;;6.50;2.63;;;;;;;8.34;100.00;100481.78;1046857;28;20303;-48
2023/12/24 00:21:17;;;;;;;6.50;2.47;;;;;;;8.41;100.00;100496.88;1047221;28;20309;-49
2023/12/24 00:21:50;;;;;;;4.80;2.85;;;;;;;8.40;100.00;100476.66;1047429;28;20317;-47
2023/12/24 00:22:21;;;;;;;8.65;2.38;;;;;;;8.40;100.00;100484.63;1047202;28;20744;-47
2023/12/24 00:23:04;;;;;;;8.38;2.38;;;;;;;8.40;100.00;100479.31;1043199;28;20303;-48
2023/12/24 00:23:36;;;;;;;7.93;2.88;;;;;;;8.36;100.00;100478.94;1043781;28;20869;-50
2023/12/24 00:24:07;;;;;;;6.53;1.98;;;;;;;8.36;100.00;100489.53;1042971;28;20319;-48
2023/12/24 00:24:44;;;;;;;9.70;3.17;;;;;;;8.55;100.00;100471.91;1042748;28;20299;-47
2023/12/24 00:25:15;;;;;;;6.20;1.98;;;;;;;8.50;100.00;100458.47;1042732;28;20843;-46
2023/12/24 00:25:47;;;;;;;6.60;1.95;;;;;;;8.46;100.00;100479.28;1045979;28;20344;-56
2023/12/24 00:26:19;;;;;;;5.28;2.05;;;;;;;8.45;100.00;100476.84;1046482;28;20353;-56
2023/12/24 00:26:50;;;;;;;11.00;2.53;;;;;;;8.52;100.00;100482.97;1043117;28;22145;-55
2023/12/24 00:27:23;;;;;;;7.82;2.55;;;;;;;8.50;100.00;100469.09;1043330;28;20677;-56
2023/12/24 00:27:54;;;;;;;3.85;1.95;;;;;;;8.45;100.00;100467.03;1043555;28;20299;-56
2023/12/24 00:28:26;;;;;;;10.02;2.35;;;;;;;8.51;100.00;100465.41;1042436;28;20315;-56
2023/12/24 00:28:57;;;;;;;9.82;2.22;;;;;;;8.55;100.00;100453.34;1044205;28;20299;-56
2023/12/24 00:29:29;;;;;;;6.00;2.75;;;;;;;8.53;100.00;100458.03;1042630;28;20678;-56
2023/12/24 00:30:01;;;;;;;8.80;2.13;;;;;;;8.55;100.00;100462.09;1042534;28;20318;-55
2023/12/24 00:30:34;;;;;;;10.98;2.88;;;;;;;8.49;100.00;100448.84;1042543;28;20410;-56
2023/12/24 00:31:05;;;;;;;5.43;2.75;;;;;;;8.54;100.00;100462.31;1043351;28;20291;-48
2023/12/24 00:31:40;;;;;;;13.40;4.53;;;;;;;8.50;100.00;100447.84;1043246;28;20819;-48
2023/12/24 00:32:11;;;;;;;10.55;2.67;;;;;;;8.46;100.00;100451.94;1042636;28;20306;-47
2023/12/24 00:32:43;;;;;;;7.13;1.90;;;;;;;8.49;100.00;100462.13;1042889;28;20298;-46
2023/12/24 00:33:16;;;;;;;6.20;1.67;;;;;;;8.49;100.00;100446.19;1035520;28;20308;-56
2023/12/24 00:33:49;;;;;;;7.40;1.63;;;;;;;8.51;100.00;100439.66;1038932;28;20300;-56
2023/12/24 00:34:21;;;;;;;5.95;2.10;;;;;;;8.49;100.00;100457.66;1039981;28;20381;-56
2023/12/24 00:34:53;;;;;;;6.68;2.38;;;;;;;8.58;100.00;100452.91;1038429;28;20672;-56
2023/12/24 00:35:25;;;;;;;6.47;2.97;;;;;;;8.62;100.00;100456.75;1042893;28;20303;-56
2023/12/24 00:35:57;;;;;;;8.70;2.70;;;;;;;8.62;100.00;100446.13;1037160;28;20373;-49
2023/12/24 00:36:28;;;;;;;13.30;2.58;;;;;;;8.64;100.00;100441.44;1043392;28;20298;-48
2023/12/24 00:37:00;;;;;;;8.85;2.42;;;;;;;8.63;100.00;100453.88;1043053;28;20318;-46
2023/12/24 00:37:32;;;;;;;8.68;2.20;;;;;;;8.61;100.00;100433.88;1042949;28;20311;-47
2023/12/24 00:38:04;;;;;;;5.53;2.28;;;;;;;8.58;100.00;100445.75;1047193;28;20377;-50
2023/12/24 00:38:36;;;;;;;7.65;1.92;;;;;;;8.57;100.00;100453.94;1047036;28;20314;-56
2023/12/24 00:39:08;;;;;;;4.43;2.20;;;;;;;8.57;100.00;100440.66;1042864;28;20393;-56
2023/12/24 00:39:41;;;;;;;6.30;3.03;;;;;;;8.59;100.00;100446.56;1036117;28;20442;-56
2023/12/24 00:40:12;;;;;;;9.98;1.83;;;;;;;8.54;100.00;100454.34;1035762;28;20285;-56
2023/12/24 00:40:44;;;;;;;7.20;3.13;;;;;;;8.52;100.00;100448.44;1040606;28;20683;-56
2023/12/24 00:41:16;;;;;;;5.85;1.60;;;;;;;8.53;100.00;100444.78;1042073;28;20362;-56
2023/12/24 00:41:48;;;;;;;9.27;2.53;;;;;;;8.57;100.00;100451.28;1042854;28;20417;-56
2023/12/24 00:42:21;;;;;;;7.15;1.95;;;;;;;8.61;100.00;100455.13;1043069;28;20533;-56
2023/12/24 00:42:52;;;;;;;10.68;2.55;;;;;;;8.56;100.00;100462.91;1042959;28;20315;-55
2023/12/24 00:43:24;;;;;;;6.40;2.03;;;;;;;8.60;100.00;100453.50;1043167;28;20298;-55
2023/12/24 00:43:56;;;;;;;13.05;2.50;;;;;;;8.61;100.00;100449.81;1046866;28;20279;-50
2023/12/24 00:44:28;;;;;;;6.90;2.33;;;;;;;8.60;100.00;100445.53;1043460;28;20346;-47
2023/12/24 00:44:59;;;;;;;6.25;1.70;;;;;;;8.59;100.00;100447.38;1042952;28;20299;-45
2023/12/24 00:45:31;;;;;;;4.95;1.83;;;;;;;8.57;100.00;100448.63;1045844;28;20855;-46
2023/12/24 00:46:03;;;;;;;7.55;1.60;;;;;;;8.61;100.00;100444.50;1046999;28;20389;-56
2023/12/24 00:46:34;;;;;;;4.80;1.38;;;;;;;8.54;100.00;100455.16;1046766;28;20299;-56
2023/12/24 00:47:06;;;;;;;7.70;2.40;;;;;;;8.61;100.00;100439.19;1043168;28;20310;-55
2023/12/24 00:47:38;;;;;;;5.45;1.50;;;;;;;8.60;100.00;100440.22;1045641;28;20291;-56
2023/12/24 00:48:10;;;;;;;4.63;1.83;;;;;;;8.57;100.00;100438.00;1047309;28;20329;-56
2023/12/24 00:48:42;;;;;;;5.05;1.45;;;;;;;8.54;100.00;100454.34;1046429;28;20306;-48
2023/12/24 00:49:14;;;;;;;4.95;2.13;;;;;;;8.63;100.00;100453.88;1046807;28;20626;-48
2023/12/24 00:49:46;;;;;;;7.45;2.97;;;;;;;8.66;100.00;100444.69;1041420;28;20710;-49
2023/12/24 00:50:17;;;;;;;7.20;2.60;;;;;;;8.70;100.00;100451.19;1042700;28;20307;-46
2023/12/24 00:50:49;;;;;;;4.50;1.77;;;;;;;8.72;100.00;100443.00;1040236;28;20815;-46
2023/12/24 00:51:21;;;;;;;7.65;2.88;;;;;;;8.69;100.00;100436.28;1038983;28;20311;-56
2023/12/24 00:51:53;;;;;;;6.68;2.13;;;;;;;8.65;100.00;100440.41;1039264;28;20300;-56
2023/12/24 00:52:26;;;;;;;6.65;2.55;;;;;;;8.63;100.00;100443.28;1046095;28;20306;-55
2023/12/24 00:52:58;;;;;;;4.57;1.88;;;;;;;8.64;100.00;100438.78;1042668;28;20299;-56
2023/12/24 00:53:29;;;;;;;9.02;1.58;;;;;;;8.62;100.00;100431.03;1042716;28;20303;-56
2023/12/24 00:54:01;;;;;;;7.25;1.80;;;;;;;8.65;100.00;100440.41;1042838;28;21516;-49
2023/12/24 00:54:33;;;;;;;7.78;3.42;;;;;;;8.66;100.00;100436.72;1042960;28;20661;-47
2023/12/24 00:55:05;;;;;;;10.02;1.88;;;;;;;8.66;100.00;100428.75;1037886;28;20391;-47
2023/12/24 00:55:36;;;;;;;7.30;2.63;;;;;;;8.70;100.00;100437.91;1038077;28;20767;-47
2023/12/24 00:56:08;;;;;;;5.22;1.13;;;;;;;8.75;100.00;100435.41;1030498;28;20311;-48
2023/12/24 00:56:39;;;;;;;9.23;1.92;;;;;;;8.67;100.00;100444.47;1031680;28;20312;-47
2023/12/24 00:57:11;;;;;;;5.22;1.83;;;;;;;8.66;100.00;100436.72;1038763;28;20951;-46
2023/12/24 00:57:43;;;;;;;6.32;2.33;;;;;;;8.64;100.00;100430.81;1039158;28;20300;-48
2023/12/24 00:58:17;;;;;;;5.72;1.27;;;;;;;8.66;100.00;100440.19;1042312;28;20394;-46
2023/12/24 00:58:48;;;;;;;5.40;1.85;;;;;;;8.66;100.00;100431.41;1045054;28;20710;-55
2023/12/24 00:59:20;;;;;;;4.90;1.95;;;;;;;8.68;100.00;100432.00;1047338;28;20299;-47
2023/12/24 00:59:51;;;;;;;5.82;2.22;;;;;;;8.68;100.00;100414.22;1046892;28;20385;-47
2023/12/24 01:00:23;;;;;;;4.63;2.03;;;;;;;8.64;100.00;100428.16;1047073;28;20309;-46
2023/12/24 01:00:55;;;;;;;10.13;2.90;;;;;;;8.65;100.00;100432.44;1046614;28;20347;-50
2023/12/24 01:01:28;;;;;;;4.55;1.20;;;;;;;8.62;100.00;100431.03;1047260;28;20309;-55
2023/12/24 01:02:00;;;;;;;6.50;1.98;;;;;;;8.60;100.00;100435.72;1043519;28;20356;-56
2023/12/24 01:02:31;;;;;;;7.53;1.67;;;;;;;8.61;100.00;100428.59;1043338;28;20291;-56
2023/12/24 01:03:06;;;;;;;6.43;1.60;;;;;;;8.59;100.00;100431.44;1047157;28;20881;-56
2023/12/24 01:03:38;;;;;;;9.40;1.38;;;;;;;8.58;100.00;100439.63;1043167;28;20305;-56
2023/12/24 01:04:09;;;;;;;8.15;2.35;;;;;;;8.64;100.00;100430.81;1044572;28;20303;-47
2023/12/24 01:04:41;;;;;;;6.97;2.53;;;;;;;8.67;100.00;100428.53;1046705;28;20680;-48
2023/12/24 01:05:13;;;;;;;2.95;1.75;;;;;;;8.69;100.00;100409.72;1043074;28;20291;-49
2023/12/24 01:05:44;;;;;;;4.85;2.63;;;;;;;8.69;100.00;100409.72;1042809;28;20314;-46
2023/12/24 01:06:16;;;;;;;3.38;1.92;;;;;;;8.75;100.00;100419.50;1043625;28;20299;-47
2023/12/24 01:06:48;;;;;;;4.65;2.22;;;;;;;8.75;100.00;100411.53;1044510;28;20310;-56
2023/12/24 01:07:20;;;;;;;7.72;2.22;;;;;;;8.72;100.00;100411.97;1046712;28;20429;-55
2023/12/24 01:07:51;;;;;;;7.38;1.92;;;;;;;8.72;100.00;100408.50;1044216;28;20287;-56
2023/12/24 01:08:23;;;;;;;7.20;2.03;;;;;;;8.70;100.00;100414.00;1042787;28;20479;-56
2023/12/24 01:08:55;;;;;;;4.60;1.50;;;;;;;8.66;100.00;100400.34;1042963;28;20348;-56
2023/12/24 01:09:26;;;;;;;7.57;2.00;;;;;;;8.73;100.00;100405.63;1042630;28;20326;-56
2023/12/24 01:09:58;;;;;;;8.93;1.75;;;;;;;8.71;100.00;100409.50;1043245;28;20300;-56
2023/12/24 01:10:30;;;;;;;5.18;1.63;;;;;;;8.71;100.00;100410.34;1046178;28;20310;-56
2023/12/24 01:11:01;;;;;;;7.57;1.70;;;;;;;8.74;100.00;100391.31;1042508;28;20428;-55
2023/12/24 01:11:33;;;;;;;6.32;1.63;;;;;;;8.78;100.00;100403.16;1042687;28;20299;-56
2023/12/24 01:12:05;;;;;;;5.53;1.70;;;;;;;8.68;100.00;100395.66;1042660;28;20713;-50
2023/12/24 01:12:37;;;;;;;7.35;1.60;;;;;;;8.66;100.00;100399.53;1041566;28;21297;-47
2023/12/24 01:13:09;;;;;;;5.53;2.22;;;;;;;8.66;100.00;100400.34;1042511;28;20295;-46
2023/12/24 01:13:40;;;;;;;8.23;1.63;;;;;;;8.63;100.00;100400.78;1043057;28;20295;-49
2023/12/24 01:14:12;;;;;;;5.97;1.23;;;;;;;8.66;100.00;100402.19;1046885;28;20677;-48
2023/12/24 01:14:43;;;;;;;4.13;1.67;;;;;;;8.68;100.00;100403.59;1047147;28;20297;-56
2023/12/24 01:15:15;;;;;;;7.13;1.60;;;;;;;8.66;100.00;100404.84;1047026;28;20387;-56
2023/12/24 01:15:47;;;;;;;9.35;1.77;;;;;;;8.72;100.00;100398.69;1046371;28;20286;-56
2023/12/24 01:16:18;;;;;;;3.95;1.60;;;;;;;8.72;100.00;100401.34;1047101;28;20608;-56
2023/12/24 01:16:50;;;;;;;8.50;1.23;;;;;;;8.73;100.00;100392.34;1046150;28;20299;-48
2023/12/24 01:17:22;;;;;;;6.40;1.52;;;;;;;8.67;100.00;100396.69;1043411;28;20382;-50
2023/12/24 01:17:54;;;;;;;4.28;1.80;;;;;;;8.68;100.00;100393.00;1042669;28;20307;-46
2023/12/24 01:18:26;;;;;;;7.05;1.75;;;;;;;8.66;100.00;100404.84;1043698;28;20365;-45
2023/12/24 01:18:58;;;;;;;7.63;1.52;;;;;;;8.64;100.00;100397.09;1044009;28;20816;-49
2023/12/24 01:19:31;;;;;;;10.13;1.70;;;;;;;8.64;100.00;100417.53;1039882;28;20292;-49
2023/12/24 01:20:13;;;;;;;4.05;1.25;;;;;;;8.67;100.00;100391.38;1041291;28;20311;-47
2023/12/24 01:20:44;;;;;;;6.25;1.58;;;;;;;8.72;100.00;100404.00;1038508;28;20319;-48
2023/12/24 01:21:16;;;;;;;7.70;1.58;;;;;;;8.72;100.00;100404.00;1038584;28;20466;-46
2023/12/24 01:21:48;;;;;;;7.57;1.63;;;;;;;8.72;100.00;100397.88;1040368;28;20314;-46
2023/12/24 01:22:20;;;;;;;3.17;1.33;;;;;;;8.69;100.00;100399.13;1041037;28;20308;-56
2023/12/24 01:22:51;;;;;;;3.97;1.63;;;;;;;8.65;100.00;100398.72;1044351;28;20376;-55
2023/12/24 01:23:23;;;;;;;6.97;1.40;;;;;;;8.59;100.00;100406.75;1043642;28;20827;-56
2023/12/24 01:23:55;;;;;;;9.25;1.50;;;;;;;8.63;100.00;100392.00;1042578;28;20713;-56
2023/12/24 01:24:27;;;;;;;3.47;1.10;;;;;;;8.64;100.00;100391.78;1042922;28;20331;-56
2023/12/24 01:24:59;;;;;;;1.83;1.00;;;;;;;8.61;100.00;100396.72;1043190;28;20703;-56
2023/12/24 01:25:31;;;;;;;5.15;1.20;;;;;;;8.69;100.00;100388.50;1042462;28;20311;-56
2023/12/24 01:26:03;;;;;;;4.30;1.23;;;;;;;8.67;100.00;100407.28;1045362;28;20718;-56
2023/12/24 01:26:36;;;;;;;7.30;1.33;;;;;;;8.72;100.00;100411.97;1046945;28;20294;-56
2023/12/24 01:27:08;;;;;;;3.63;1.00;;;;;;;8.74;100.00;100404.59;1047288;28;20790;-56
2023/12/24 01:27:40;;;;;;;6.53;2.00;;;;;;;8.70;100.00;100411.34;1046809;28;20305;-56
2023/12/24 01:28:11;;;;;;;6.55;1.98;;;;;;;8.68;100.00;100403.59;1046340;28;20799;-56
2023/12/24 01:28:43;;;;;;;3.83;1.45;;;;;;;8.65;100.00;100397.91;1042852;28;20287;-56
2023/12/24 01:29:15;;;;;;;1.95;1.13;;;;;;;8.66;100.00;100399.53;1038285;28;20304;-56
2023/12/24 01:29:48;;;;;;;9.05;1.83;;;;;;;8.68;100.00;100405.44;1034364;28;20385;-56
2023/12/24 01:30:20;;;;;;;9.20;1.13;;;;;;;8.61;100.00;100404.69;1035129;28;20783;-56
2023/12/24 01:30:52;;;;;;;5.85;1.50;;;;;;;8.68;100.00;100400.16;1039885;28;20794;-55
2023/12/24 01:31:25;;;;;;;5.68;1.65;;;;;;;8.75;100.00;100390.28;1041571;28;20310;-56
2023/12/24 01:31:56;;;;;;;6.07;1.35;;;;;;;8.73;100.00;100402.97;1039760;28;20316;-56
2023/12/24 01:32:28;;;;;;;2.85;1.27;;;;;;;8.71;100.00;100386.44;1042615;28;20737;-56
2023/12/24 01:33:00;;;;;;;7.90;2.75;;;;;;;8.72;100.00;100390.72;1038464;28;20300;-55
2023/12/24 01:33:32;;;;;;;5.55;1.45;;;;;;;8.72;100.00;100398.69;1037685;28;20304;-56
2023/12/24 01:34:04;;;;;;;5.68;1.23;;;;;;;8.64;100.00;100404.25;1042136;28;20373;-55
2023/12/24 01:34:36;;;;;;;9.35;2.28;;;;;;;8.71;100.00;100391.75;1036804;28;20698;-56
2023/12/24 01:35:08;;;;;;;7.90;1.48;;;;;;;8.72;100.00;100393.38;1040610;28;20303;-56
2023/12/24 01:35:43;;;;;;;4.22;1.42;;;;;;;8.77;100.00;100396.22;1046101;28;20725;-56
2023/12/24 01:36:15;;;;;;;1.98;1.10;;;;;;;8.74;100.00;100390.50;1041713;28;20300;-56
2023/12/24 01:36:47;;;;;;;2.75;1.52;;;;;;;8.66;100.00;100403.00;1038881;28;20311;-56
2023/12/24 01:37:18;;;;;;;9.45;3.50;;;;;;;8.64;100.00;100390.97;1034553;28;20289;-56
2023/12/24 01:37:50;;;;;;;4.93;1.35;;;;;;;8.60;100.00;100400.41;1035033;28;20300;-46
2023/12/24 01:38:21;;;;;;;5.45;2.03;;;;;;;8.64;100.00;100409.56;1042610;28;20382;-47
2023/12/24 01:38:53;;;;;;;4.45;1.40;;;;;;;8.64;100.00;100404.25;1039188;28;20308;-47
2023/12/24 01:39:25;;;;;;;8.95;2.15;;;;;;;8.65;100.00;100403.22;1040975;28;20742;-47
2023/12/24 01:39:57;;;;;;;3.10;1.15;;;;;;;8.61;100.00;100402.03;1038643;28;20308;-46
2023/12/24 01:40:29;;;;;;;5.93;1.52;;;;;;;8.66;100.00;100404.84;1039111;28;20685;-48
2023/12/24 01:41:00;;;;;;;4.20;1.10;;;;;;;8.69;100.00;100399.13;1040170;28;20310;-48
2023/12/24 01:41:32;;;;;;;4.13;1.23;;;;;;;8.71;100.00;100402.38;1046646;28;20688;-48
2023/12/24 01:42:04;;;;;;;2.60;1.38;;;;;;;8.71;100.00;100398.91;1041967;28;20378;-48
2023/12/24 01:42:36;;;;;;;5.78;1.48;;;;;;;8.74;100.00;100401.94;1043036;28;20291;-46
2023/12/24 01:43:08;;;;;;;3.28;1.50;;;;;;;8.68;100.00;100402.78;1040756;28;20288;-50
2023/12/24 01:43:43;;;;;;;6.57;1.25;;;;;;;8.72;100.00;100401.34;1041340;28;20299;-46
2023/12/24 01:44:14;;;;;;;7.38;1.65;;;;;;;8.76;100.00;100393.75;1043307;28;20356;-49
2023/12/24 01:44:46;;;;;;;5.32;1.30;;;;;;;8.71;100.00;100397.06;1042875;28;20744;-47
2023/12/24 01:45:18;;;;;;;4.00;1.27;;;;;;;8.66;100.00;100392.41;1042965;28;20425;-46
2023/12/24 01:45:49;;;;;;;4.25;1.10;;;;;;;8.64;100.00;100389.13;1043478;28;20316;-49
2023/12/24 01:46:24;;;;;;;2.83;1.38;;;;;;;8.64;100.00;100385.66;1042714;28;20288;-50
2023/12/24 01:46:56;;;;;;;3.35;1.27;;;;;;;8.64;100.00;100396.28;1043149;28;20846;-47
2023/12/24 01:47:29;;;;;;;4.15;1.50;;;;;;;8.62;100.00;100396.50;1046722;28;20869;-50
2023/12/24 01:48:00;;;;;;;5.45;1.67;;;;;;;8.61;100.00;100394.06;1038648;28;20304;-47
2023/12/24 01:48:32;;;;;;;8.50;1.20;;;;;;;8.65;100.00;100392.59;1039206;28;20300;-47
2023/12/24 01:49:04;;;;;;;6.65;1.67;;;;;;;8.62;100.00;100401.81;1038911;28;20300;-48
2023/12/24 01:49:36;;;;;;;3.70;1.27;;;;;;;8.68;100.00;100400.16;1038949;28;20304;-46
2023/12/24 01:50:09;;;;;;;8.85;1.35;;;;;;;8.76;100.00;100391.91;1044360;28;20685;-56
2023/12/24 01:50:46;;;;;;;4.25;1.05;;;;;;;8.68;100.00;100397.47;1046529;28;20338;-56
2023/12/24 01:51:18;;;;;;;4.78;1.95;;;;;;;8.73;100.00;100388.88;1042498;28;20805;-56
2023/12/24 01:51:49;;;;;;;6.03;1.42;;;;;;;8.69;100.00;100380.53;1042574;28;20473;-56
2023/12/24 01:52:21;;;;;;;2.13;1.05;;;;;;;8.68;100.00;100386.88;1038359;28;20391;-54
2023/12/24 01:52:53;;;;;;;13.70;1.45;;;;;;;8.66;100.00;100394.25;1039560;28;20295;-55
2023/12/24 01:53:25;;;;;;;7.45;1.38;;;;;;;8.67;100.00;100379.94;1043104;28;20292;-55
2023/12/24 01:53:57;;;;;;;2.97;0.90;;;;;;;8.69;100.00;100380.53;1043253;28;20663;-54
2023/12/24 01:54:34;;;;;;;5.78;1.52;;;;;;;8.68;100.00;100386.88;1047218;28;20283;-55
2023/12/24 01:55:07;;;;;;;5.32;2.20;;;;;;;8.68;100.00;100398.31;1045878;28;20306;-55
2023/12/24 01:55:38;;;;;;;4.38;1.02;;;;;;;8.63;100.00;100394.66;1043051;28;20437;-55
2023/12/24 01:56:10;;;;;;;4.10;1.30;;;;;;;8.65;100.00;100395.25;1042653;28;20705;-55
2023/12/24 01:56:42;;;;;;;5.55;1.48;;;;;;;8.60;100.00;100387.13;1041552;28;20303;-55
2023/12/24 01:57:15;;;;;;;6.53;1.45;;;;;;;8.61;100.00;100372.84;1035706;28;21396;-56
2023/12/24 01:57:46;;;;;;;5.05;0.95;;;;;;;8.54;100.00;100388.00;1033338;28;20309;-55
2023/12/24 01:58:18;;;;;;;4.20;2.08;;;;;;;8.55;100.00;100398.41;1033254;28;20323;-47
2023/12/24 01:58:53;;;;;;;7.00;1.27;;;;;;;8.56;100.00;100400.03;1031447;28;20878;-49
2023/12/24 01:59:26;;;;;;;5.97;1.23;;;;;;;8.52;100.00;100413.94;1035135;28;20293;-46
2023/12/24 01:59:58;;;;;;;3.40;1.33;;;;;;;8.52;100.00;100406.78;1034752;28;20644;-47
2023/12/24 02:00:30;;;;;;;3.92;1.50;;;;;;;8.54;100.00;100391.47;1035368;28;20405;-49
2023/12/24 02:01:02;;;;;;;5.72;1.17;;;;;;;8.58;100.00;100399.81;1038574;28;20315;-47
2023/12/24 02:01:33;;;;;;;7.78;1.77;;;;;;;8.53;100.00;100405.75;1038763;28;20326;-47
2023/12/24 02:02:06;;;;;;;3.58;1.38;;;;;;;8.52;100.00;100398.81;1030306;28;21286;-49
2023/12/24 02:02:41;;;;;;;4.60;1.08;;;;;;;8.53;100.00;100399.66;1034891;28;20315;-46
2023/12/24 02:03:15;;;;;;;3.55;1.75;;;;;;;8.59;100.00;100404.09;1034633;28;20307;-48
2023/12/24 02:03:48;;;;;;;2.90;1.10;;;;;;;8.57;100.00;100398.19;1035478;28;20305;-45
2023/12/24 02:04:19;;;;;;;3.47;1.50;;;;;;;8.50;100.00;100400.06;1032866;28;20363;-46
2023/12/24 02:04:51;;;;;;;5.78;1.63;;;;;;;8.48;100.00;100394.13;1029504;28;20784;-48
2023/12/24 02:05:23;;;;;;;4.63;1.20;;;;;;;8.49;100.00;100398.41;1033632;28;20351;-48
2023/12/24 02:05:54;;;;;;;4.88;1.58;;;;;;;8.45;100.00;100394.56;1035269;28;20289;-46
2023/12/24 02:06:26;;;;;;;6.63;1.17;;;;;;;8.51;100.00;100404.34;1035427;28;20339;-48
2023/12/24 02:06:58;;;;;;;5.00;1.40;;;;;;;8.54;100.00;100403.94;1036994;28;20303;-48
2023/12/24 02:07:34;;;;;;;2.60;1.08;;;;;;;8.49;100.00;100406.38;1038541;28;20698;-49
2023/12/24 02:08:07;;;;;;;4.60;1.45;;;;;;;8.49;100.00;100404.56;1034978;28;20309;-48
2023/12/24 02:08:40;;;;;;;4.68;1.30;;;;;;;8.45;100.00;100405.19;1039806;28;20386;-55
2023/12/24 02:09:11;;;;;;;3.35;1.15;;;;;;;8.52;100.00;100398.00;1043038;28;20369;-56
2023/12/24 02:09:43;;;;;;;5.75;1.90;;;;;;;8.50;100.00;100402.72;1042750;28;20299;-55
2023/12/24 02:10:15;;;;;;;5.22;1.30;;;;;;;8.51;100.00;100396.38;1042389;28;20662;-56
2023/12/24 02:10:46;;;;;;;8.02;1.40;;;;;;;8.49;100.00;100403.72;1034986;28;20308;-55
2023/12/24 02:11:20;;;;;;;3.28;1.67;;;;;;;8.41;100.00;100396.03;1032374;28;20792;-55
2023/12/24 02:11:52;;;;;;;5.57;1.23;;;;;;;8.36;100.00;100394.81;1033965;28;20309;-55
2023/12/24 02:12:24;;;;;;;6.68;1.45;;;;;;;8.43;100.00;100391.31;1035322;28;20293;-56
2023/12/24 02:12:56;;;;;;;6.47;1.77;;;;;;;8.47;100.00;100395.16;1034485;28;20312;-55
2023/12/24 02:13:27;;;;;;;8.32;1.63;;;;;;;8.43;100.00;100393.97;1029614;28;20397;-54
2023/12/24 02:13:59;;;;;;;5.47;1.77;;;;;;;8.40;100.00;100378.47;1038329;28;20295;-56
2023/12/24 02:14:31;;;;;;;2.80;1.38;;;;;;;8.40;100.00;100389.91;1038857;28;20300;-55
2023/12/24 02:15:03;;;;;;;3.78;1.73;;;;;;;8.40;100.00;100395.22;1036402;28;20711;-47
2023/12/24 02:15:35;;;;;;;5.70;2.00;;;;;;;8.43;100.00;100400.09;1031008;28;20297;-46
2023/12/24 02:16:07;;;;;;;7.55;1.52;;;;;;;8.43;100.00;100397.44;1034415;28;20388;-55
2023/12/24 02:16:39;;;;;;;2.42;1.10;;;;;;;8.42;100.00;100397.66;1035890;28;20312;-55
2023/12/24 02:17:11;;;;;;;4.03;1.20;;;;;;;8.42;100.00;100397.66;1038245;28;20347;-55
2023/12/24 02:17:45;;;;;;;7.57;2.35;;;;;;;8.42;100.00;100395.00;1043263;28;20356;-55
2023/12/24 02:18:18;;;;;;;4.80;2.15;;;;;;;8.40;100.00;100389.09;1043274;28;20303;-55
2023/12/24 02:18:50;;;;;;;5.00;1.40;;;;;;;8.34;100.00;100396.88;1039612;28;20287;-55
2023/12/24 02:19:22;;;;;;;3.75;1.92;;;;;;;8.32;100.00;100385.63;1036531;28;20309;-53
2023/12/24 02:19:54;;;;;;;5.05;1.70;;;;;;;8.30;100.00;100395.66;1039186;28;20802;-55
2023/12/24 02:20:26;;;;;;;4.80;1.83;;;;;;;8.35;100.00;100393.19;1034774;28;20317;-55
2023/12/24 02:21:02;;;;;;;6.35;1.67;;;;;;;8.38;100.00;100393.78;1033444;28;20301;-55
2023/12/24 02:21:34;;;;;;;5.30;1.90;;;;;;;8.32;100.00;100388.28;1039443;28;20697;-48
2023/12/24 02:22:06;;;;;;;5.43;1.73;;;;;;;8.33;100.00;100395.25;1042543;28;20857;-48
2023/12/24 02:22:37;;;;;;;6.43;2.17;;;;;;;8.33;100.00;100391.75;1040298;28;20395;-48
2023/12/24 02:23:09;;;;;;;6.13;2.78;;;;;;;8.34;100.00;100391.56;1039794;28;20647;-46
2023/12/24 02:23:40;;;;;;;4.22;1.58;;;;;;;8.33;100.00;100379.31;1043696;28;20338;-55
2023/12/24 02:24:13;;;;;;;3.95;1.70;;;;;;;8.35;100.00;100377.28;1044141;28;20303;-56
2023/12/24 02:24:44;;;;;;;5.45;1.35;;;;;;;8.30;100.00;100389.53;1043240;28;20295;-55
2023/12/24 02:25:16;;;;;;;6.93;1.60;;;;;;;8.23;100.00;100386.91;1043145;28;20364;-55
2023/12/24 02:25:49;;;;;;;2.80;1.85;;;;;;;8.22;100.00;100379.97;1043841;28;20429;-56
2023/12/24 02:26:35;;;;;;;6.50;1.52;;;;;;;8.24;100.00;100385.88;1048258;28;20311;-45
2023/12/24 02:28:02;;;;;;;6.45;2.05;;;;;;;8.20;100.00;100375.88;1051524;28;20316;-45
2023/12/24 02:28:40;;;;;;;4.18;1.42;;;;;;;8.21;100.00;100375.66;1040635;28;20339;-47
2023/12/24 02:29:20;;;;;;;7.07;1.73;;;;;;;8.19;100.00;100377.72;1044333;28;20292;-56
2023/12/24 02:29:54;;;;;;;2.33;1.20;;;;;;;8.20;100.00;100371.38;1040704;28;20339;-56
2023/12/24 02:30:31;;;;;;;7.45;1.90;;;;;;;8.20;100.00;100363.44;1034785;28;20407;-55